sensor_id;sensor_type;location;lat;lon;timestamp;P1;durP1;ratioP1;P2;durP2;ratioP2
17145;SDS011;8688;54.444;18.444;2023-02-28T00:04:18;95.37;;;30.80;;
17145;SDS011;8688;54.444;18.444;2023-02-28T00:06:47;88.77;;;28.43;;
17145;SDS011;8688;54.444;18.444;2023-02-28T00:09:15;87.40;;;27.73;;
17145;SDS011;8688;54.444;18.444;2023-02-28T00:11:42;74.23;;;25.27;;
17145;SDS011;8688;54.444;18.444;2023-02-28T00:14:10;69.33;;;24.10;;
17145;SDS011;8688;54.444;18.444;2023-02-28T00:16:37;70.60;;;25.37;;
17145;SDS011;8688;54.444;18.444;2023-02-28T00:19:04;85.40;;;25.13;;
17145;SDS011;8688;54.444;18.444;2023-02-28T00:21:32;72.40;;;24.77;;
17145;SDS011;8688;54.444;18.444;2023-02-28T00:24:02;73.43;;;26.37;;
17145;SDS011;8688;54.444;18.444;2023-02-28T00:26:30;75.07;;;25.97;;
17145;SDS011;8688;54.444;18.444;2023-02-28T00:28:57;72.70;;;25.27;;
17145;SDS011;8688;54.444;18.444;2023-02-28T00:31:24;85.00;;;26.30;;
17145;SDS011;8688;54.444;18.444;2023-02-28T00:33:52;64.70;;;23.53;;
17145;SDS011;8688;54.444;18.444;2023-02-28T00:36:20;42.60;;;17.40;;
17145;SDS011;8688;54.444;18.444;2023-02-28T00:38:47;57.60;;;19.53;;
17145;SDS011;8688;54.444;18.444;2023-02-28T00:41:16;47.73;;;19.27;;
17145;SDS011;8688;54.444;18.444;2023-02-28T00:43:44;50.07;;;18.90;;
17145;SDS011;8688;54.444;18.444;2023-02-28T00:46:12;57.33;;;21.30;;
17145;SDS011;8688;54.444;18.444;2023-02-28T00:48:39;56.17;;;20.33;;
17145;SDS011;8688;54.444;18.444;2023-02-28T00:51:07;65.17;;;22.03;;
17145;SDS011;8688;54.444;18.444;2023-02-28T00:53:34;59.10;;;22.40;;
17145;SDS011;8688;54.444;18.444;2023-02-28T00:56:02;86.87;;;27.27;;
17145;SDS011;8688;54.444;18.444;2023-02-28T00:58:31;63.83;;;21.80;;
17145;SDS011;8688;54.444;18.444;2023-02-28T01:00:58;71.10;;;23.57;;
17145;SDS011;8688;54.444;18.444;2023-02-28T01:03:26;78.77;;;26.93;;
17145;SDS011;8688;54.444;18.444;2023-02-28T01:05:53;93.33;;;27.80;;
17145;SDS011;8688;54.444;18.444;2023-02-28T01:08:21;90.80;;;28.23;;
17145;SDS011;8688;54.444;18.444;2023-02-28T01:10:49;100.13;;;28.87;;
17145;SDS011;8688;54.444;18.444;2023-02-28T01:13:16;85.87;;;27.83;;
17145;SDS011;8688;54.444;18.444;2023-02-28T01:15:48;80.53;;;25.67;;
17145;SDS011;8688;54.444;18.444;2023-02-28T01:18:17;80.33;;;26.20;;
17145;SDS011;8688;54.444;18.444;2023-02-28T01:20:45;77.93;;;25.33;;
17145;SDS011;8688;54.444;18.444;2023-02-28T01:23:12;84.67;;;26.13;;
17145;SDS011;8688;54.444;18.444;2023-02-28T01:25:40;69.93;;;23.73;;
17145;SDS011;8688;54.444;18.444;2023-02-28T01:28:07;93.87;;;28.80;;
17145;SDS011;8688;54.444;18.444;2023-02-28T01:30:35;89.73;;;29.00;;
17145;SDS011;8688;54.444;18.444;2023-02-28T01:33:04;94.63;;;28.87;;
17145;SDS011;8688;54.444;18.444;2023-02-28T01:35:32;77.60;;;25.67;;
17145;SDS011;8688;54.444;18.444;2023-02-28T01:38:00;84.77;;;26.23;;
17145;SDS011;8688;54.444;18.444;2023-02-28T01:40:27;83.80;;;25.17;;
17145;SDS011;8688;54.444;18.444;2023-02-28T01:42:55;85.70;;;26.60;;
17145;SDS011;8688;54.444;18.444;2023-02-28T01:45:23;82.67;;;26.20;;
17145;SDS011;8688;54.444;18.444;2023-02-28T01:47:54;83.30;;;27.70;;
17145;SDS011;8688;54.444;18.444;2023-02-28T01:50:28;89.43;;;25.93;;
17145;SDS011;8688;54.444;18.444;2023-02-28T01:53:01;87.60;;;28.97;;
17145;SDS011;8688;54.444;18.444;2023-02-28T01:55:33;101.90;;;31.07;;
17145;SDS011;8688;54.444;18.444;2023-02-28T01:58:02;92.63;;;28.27;;
17145;SDS011;8688;54.444;18.444;2023-02-28T02:00:31;103.67;;;29.10;;
17145;SDS011;8688;54.444;18.444;2023-02-28T02:02:59;93.23;;;27.63;;
17145;SDS011;8688;54.444;18.444;2023-02-28T02:05:34;74.80;;;23.23;;
17145;SDS011;8688;54.444;18.444;2023-02-28T02:08:05;83.53;;;25.77;;
17145;SDS011;8688;54.444;18.444;2023-02-28T02:10:35;66.60;;;23.73;;
17145;SDS011;8688;54.444;18.444;2023-02-28T02:16:08;64.27;;;20.53;;
17145;SDS011;8688;54.444;18.444;2023-02-28T02:18:46;77.37;;;25.63;;
17145;SDS011;8688;54.444;18.444;2023-02-28T02:24:26;57.70;;;21.47;;
17145;SDS011;8688;54.444;18.444;2023-02-28T02:27:22;53.80;;;19.10;;
17145;SDS011;8688;54.444;18.444;2023-02-28T02:30:14;63.83;;;20.27;;
17145;SDS011;8688;54.444;18.444;2023-02-28T02:51:26;49.57;;;19.07;;
17145;SDS011;8688;54.444;18.444;2023-02-28T02:53:59;61.13;;;20.77;;
17145;SDS011;8688;54.444;18.444;2023-02-28T02:56:31;56.67;;;20.37;;
17145;SDS011;8688;54.444;18.444;2023-02-28T02:59:00;56.27;;;18.13;;
17145;SDS011;8688;54.444;18.444;2023-02-28T03:01:31;55.17;;;19.20;;
17145;SDS011;8688;54.444;18.444;2023-02-28T03:04:01;49.53;;;18.63;;
17145;SDS011;8688;54.444;18.444;2023-02-28T03:06:32;50.93;;;18.20;;
17145;SDS011;8688;54.444;18.444;2023-02-28T03:09:00;49.40;;;18.83;;
17145;SDS011;8688;54.444;18.444;2023-02-28T03:11:28;49.77;;;18.57;;
17145;SDS011;8688;54.444;18.444;2023-02-28T03:14:05;50.57;;;17.53;;
17145;SDS011;8688;54.444;18.444;2023-02-28T03:19:45;54.33;;;17.03;;
17145;SDS011;8688;54.444;18.444;2023-02-28T03:25:20;48.57;;;15.97;;
17145;SDS011;8688;54.444;18.444;2023-02-28T03:27:55;45.97;;;16.43;;
17145;SDS011;8688;54.444;18.444;2023-02-28T03:30:29;40.43;;;14.73;;
17145;SDS011;8688;54.444;18.444;2023-02-28T03:33:03;44.20;;;14.57;;
17145;SDS011;8688;54.444;18.444;2023-02-28T03:35:36;42.93;;;15.37;;
17145;SDS011;8688;54.444;18.444;2023-02-28T03:38:11;59.33;;;19.10;;
17145;SDS011;8688;54.444;18.444;2023-02-28T03:40:43;61.70;;;17.40;;
17145;SDS011;8688;54.444;18.444;2023-02-28T03:43:15;60.10;;;18.23;;
17145;SDS011;8688;54.444;18.444;2023-02-28T03:45:47;51.70;;;17.97;;
17145;SDS011;8688;54.444;18.444;2023-02-28T03:48:19;50.43;;;18.03;;
17145;SDS011;8688;54.444;18.444;2023-02-28T03:50:51;60.90;;;18.43;;
17145;SDS011;8688;54.444;18.444;2023-02-28T03:53:23;48.40;;;16.30;;
17145;SDS011;8688;54.444;18.444;2023-02-28T03:55:55;41.87;;;13.13;;
17145;SDS011;8688;54.444;18.444;2023-02-28T03:58:31;43.27;;;14.13;;
17145;SDS011;8688;54.444;18.444;2023-02-28T04:01:05;46.57;;;16.13;;
17145;SDS011;8688;54.444;18.444;2023-02-28T04:03:35;40.90;;;14.80;;
17145;SDS011;8688;54.444;18.444;2023-02-28T04:06:04;34.40;;;13.10;;
17145;SDS011;8688;54.444;18.444;2023-02-28T04:08:35;35.13;;;11.93;;
17145;SDS011;8688;54.444;18.444;2023-02-28T04:11:04;38.07;;;12.27;;
17145;SDS011;8688;54.444;18.444;2023-02-28T04:13:38;37.57;;;13.53;;
17145;SDS011;8688;54.444;18.444;2023-02-28T04:16:06;41.67;;;14.33;;
17145;SDS011;8688;54.444;18.444;2023-02-28T04:18:37;36.73;;;14.17;;
17145;SDS011;8688;54.444;18.444;2023-02-28T04:21:05;44.53;;;15.13;;
17145;SDS011;8688;54.444;18.444;2023-02-28T04:23:32;37.37;;;14.53;;
17145;SDS011;8688;54.444;18.444;2023-02-28T04:26:03;34.10;;;13.73;;
17145;SDS011;8688;54.444;18.444;2023-02-28T04:28:32;32.73;;;12.23;;
17145;SDS011;8688;54.444;18.444;2023-02-28T04:31:00;36.90;;;13.60;;
17145;SDS011;8688;54.444;18.444;2023-02-28T04:33:29;43.93;;;14.03;;
17145;SDS011;8688;54.444;18.444;2023-02-28T04:35:58;49.73;;;15.40;;
17145;SDS011;8688;54.444;18.444;2023-02-28T04:38:28;37.53;;;12.63;;
17145;SDS011;8688;54.444;18.444;2023-02-28T04:40:58;39.40;;;13.73;;
17145;SDS011;8688;54.444;18.444;2023-02-28T04:43:26;47.27;;;14.87;;
17145;SDS011;8688;54.444;18.444;2023-02-28T04:45:55;30.33;;;12.13;;
17145;SDS011;8688;54.444;18.444;2023-02-28T04:48:23;27.70;;;11.27;;
17145;SDS011;8688;54.444;18.444;2023-02-28T04:50:51;31.20;;;12.47;;
17145;SDS011;8688;54.444;18.444;2023-02-28T04:53:18;34.17;;;12.20;;
17145;SDS011;8688;54.444;18.444;2023-02-28T04:55:46;31.77;;;12.77;;
17145;SDS011;8688;54.444;18.444;2023-02-28T04:58:15;31.90;;;11.90;;
17145;SDS011;8688;54.444;18.444;2023-02-28T05:21:00;22.07;;;9.80;;
17145;SDS011;8688;54.444;18.444;2023-02-28T05:23:28;32.67;;;12.10;;
17145;SDS011;8688;54.444;18.444;2023-02-28T05:25:56;36.97;;;12.83;;
17145;SDS011;8688;54.444;18.444;2023-02-28T05:28:24;44.77;;;13.97;;
17145;SDS011;8688;54.444;18.444;2023-02-28T05:30:51;26.93;;;11.47;;
17145;SDS011;8688;54.444;18.444;2023-02-28T05:33:19;29.33;;;10.07;;
17145;SDS011;8688;54.444;18.444;2023-02-28T05:35:46;24.20;;;10.13;;
17145;SDS011;8688;54.444;18.444;2023-02-28T05:38:15;27.07;;;10.67;;
17145;SDS011;8688;54.444;18.444;2023-02-28T05:40:43;31.07;;;12.70;;
17145;SDS011;8688;54.444;18.444;2023-02-28T05:43:10;28.13;;;11.23;;
17145;SDS011;8688;54.444;18.444;2023-02-28T05:45:38;34.83;;;13.37;;
17145;SDS011;8688;54.444;18.444;2023-02-28T05:48:05;35.00;;;13.10;;
17145;SDS011;8688;54.444;18.444;2023-02-28T05:50:34;30.13;;;12.27;;
17145;SDS011;8688;54.444;18.444;2023-02-28T05:53:01;35.50;;;11.83;;
17145;SDS011;8688;54.444;18.444;2023-02-28T05:55:30;36.17;;;12.00;;
17145;SDS011;8688;54.444;18.444;2023-02-28T05:57:57;36.53;;;12.80;;
17145;SDS011;8688;54.444;18.444;2023-02-28T06:00:25;38.90;;;14.23;;
17145;SDS011;8688;54.444;18.444;2023-02-28T06:02:53;34.40;;;13.67;;
17145;SDS011;8688;54.444;18.444;2023-02-28T06:05:23;43.47;;;15.17;;
17145;SDS011;8688;54.444;18.444;2023-02-28T06:07:50;39.73;;;15.03;;
17145;SDS011;8688;54.444;18.444;2023-02-28T06:10:18;37.30;;;12.27;;
17145;SDS011;8688;54.444;18.444;2023-02-28T06:12:47;41.97;;;15.27;;
17145;SDS011;8688;54.444;18.444;2023-02-28T06:15:15;41.80;;;15.93;;
17145;SDS011;8688;54.444;18.444;2023-02-28T06:17:43;44.00;;;15.00;;
17145;SDS011;8688;54.444;18.444;2023-02-28T06:20:11;44.23;;;15.57;;
17145;SDS011;8688;54.444;18.444;2023-02-28T06:22:39;46.70;;;15.90;;
17145;SDS011;8688;54.444;18.444;2023-02-28T06:25:07;40.73;;;14.90;;
17145;SDS011;8688;54.444;18.444;2023-02-28T06:27:36;38.47;;;14.90;;
17145;SDS011;8688;54.444;18.444;2023-02-28T06:30:05;40.07;;;15.37;;
17145;SDS011;8688;54.444;18.444;2023-02-28T06:32:34;37.63;;;14.27;;
17145;SDS011;8688;54.444;18.444;2023-02-28T06:35:02;40.23;;;15.03;;
17145;SDS011;8688;54.444;18.444;2023-02-28T06:37:30;39.33;;;14.73;;
17145;SDS011;8688;54.444;18.444;2023-02-28T06:39:58;39.63;;;15.43;;
17145;SDS011;8688;54.444;18.444;2023-02-28T06:42:25;45.07;;;16.17;;
17145;SDS011;8688;54.444;18.444;2023-02-28T06:44:53;40.50;;;16.07;;
17145;SDS011;8688;54.444;18.444;2023-02-28T06:47:23;39.37;;;15.47;;
17145;SDS011;8688;54.444;18.444;2023-02-28T06:49:50;44.17;;;16.90;;
17145;SDS011;8688;54.444;18.444;2023-02-28T06:52:18;45.40;;;16.90;;
17145;SDS011;8688;54.444;18.444;2023-02-28T06:54:47;44.67;;;17.83;;
17145;SDS011;8688;54.444;18.444;2023-02-28T06:57:24;45.83;;;16.90;;
17145;SDS011;8688;54.444;18.444;2023-02-28T06:59:52;47.17;;;18.77;;
17145;SDS011;8688;54.444;18.444;2023-02-28T07:02:19;72.87;;;26.57;;
17145;SDS011;8688;54.444;18.444;2023-02-28T07:04:48;74.47;;;25.03;;
17145;SDS011;8688;54.444;18.444;2023-02-28T07:07:15;79.80;;;26.10;;
17145;SDS011;8688;54.444;18.444;2023-02-28T07:09:43;79.90;;;28.03;;
17145;SDS011;8688;54.444;18.444;2023-02-28T07:12:10;77.23;;;26.20;;
17145;SDS011;8688;54.444;18.444;2023-02-28T07:14:38;71.13;;;26.00;;
17145;SDS011;8688;54.444;18.444;2023-02-28T07:17:06;72.13;;;25.67;;
17145;SDS011;8688;54.444;18.444;2023-02-28T07:19:34;62.47;;;22.37;;
17145;SDS011;8688;54.444;18.444;2023-02-28T07:22:03;54.83;;;23.30;;
17145;SDS011;8688;54.444;18.444;2023-02-28T07:24:30;52.37;;;20.37;;
17145;SDS011;8688;54.444;18.444;2023-02-28T07:26:57;51.23;;;18.97;;
17145;SDS011;8688;54.444;18.444;2023-02-28T07:29:26;56.27;;;19.93;;
17145;SDS011;8688;54.444;18.444;2023-02-28T07:31:53;48.63;;;18.67;;
17145;SDS011;8688;54.444;18.444;2023-02-28T07:34:21;43.10;;;18.57;;
17145;SDS011;8688;54.444;18.444;2023-02-28T07:36:48;54.60;;;18.97;;
17145;SDS011;8688;54.444;18.444;2023-02-28T07:39:20;51.23;;;19.40;;
17145;SDS011;8688;54.444;18.444;2023-02-28T07:41:48;62.50;;;22.67;;
17145;SDS011;8688;54.444;18.444;2023-02-28T07:44:15;65.13;;;23.50;;
17145;SDS011;8688;54.444;18.444;2023-02-28T07:46:43;70.27;;;24.77;;
17145;SDS011;8688;54.444;18.444;2023-02-28T07:49:10;78.17;;;26.60;;
17145;SDS011;8688;54.444;18.444;2023-02-28T07:51:38;94.27;;;29.10;;
17145;SDS011;8688;54.444;18.444;2023-02-28T07:54:05;97.43;;;30.40;;
17145;SDS011;8688;54.444;18.444;2023-02-28T07:56:34;78.10;;;27.67;;
17145;SDS011;8688;54.444;18.444;2023-02-28T07:59:02;83.70;;;27.80;;
17145;SDS011;8688;54.444;18.444;2023-02-28T08:01:29;72.20;;;25.63;;
17145;SDS011;8688;54.444;18.444;2023-02-28T08:03:57;56.67;;;22.30;;
17145;SDS011;8688;54.444;18.444;2023-02-28T08:06:24;38.87;;;16.47;;
17145;SDS011;8688;54.444;18.444;2023-02-28T08:08:52;39.57;;;17.07;;
17145;SDS011;8688;54.444;18.444;2023-02-28T08:11:21;45.00;;;17.63;;
17145;SDS011;8688;54.444;18.444;2023-02-28T08:13:50;47.77;;;18.47;;
17145;SDS011;8688;54.444;18.444;2023-02-28T08:16:17;46.57;;;19.43;;
17145;SDS011;8688;54.444;18.444;2023-02-28T08:18:47;39.37;;;15.07;;
17145;SDS011;8688;54.444;18.444;2023-02-28T08:21:15;35.63;;;13.13;;
17145;SDS011;8688;54.444;18.444;2023-02-28T08:23:43;29.47;;;12.33;;
17145;SDS011;8688;54.444;18.444;2023-02-28T08:26:10;31.07;;;11.53;;
17145;SDS011;8688;54.444;18.444;2023-02-28T08:28:38;16.10;;;7.93;;
17145;SDS011;8688;54.444;18.444;2023-02-28T08:31:11;16.17;;;6.17;;
17145;SDS011;8688;54.444;18.444;2023-02-28T08:33:39;22.70;;;8.30;;
17145;SDS011;8688;54.444;18.444;2023-02-28T08:36:08;45.43;;;16.67;;
17145;SDS011;8688;54.444;18.444;2023-02-28T08:38:36;21.97;;;9.53;;
17145;SDS011;8688;54.444;18.444;2023-02-28T08:41:05;15.50;;;6.40;;
17145;SDS011;8688;54.444;18.444;2023-02-28T08:43:34;25.73;;;10.50;;
17145;SDS011;8688;54.444;18.444;2023-02-28T08:46:02;13.67;;;5.93;;
17145;SDS011;8688;54.444;18.444;2023-02-28T08:48:33;54.40;;;23.47;;
17145;SDS011;8688;54.444;18.444;2023-02-28T08:51:03;20.30;;;8.27;;
17145;SDS011;8688;54.444;18.444;2023-02-28T08:53:32;13.63;;;5.87;;
17145;SDS011;8688;54.444;18.444;2023-02-28T08:56:01;78.07;;;29.43;;
17145;SDS011;8688;54.444;18.444;2023-02-28T08:58:30;36.77;;;14.80;;
17145;SDS011;8688;54.444;18.444;2023-02-28T09:00:57;41.57;;;15.90;;
17145;SDS011;8688;54.444;18.444;2023-02-28T09:03:25;55.03;;;22.07;;
17145;SDS011;8688;54.444;18.444;2023-02-28T09:05:55;49.00;;;21.40;;
17145;SDS011;8688;54.444;18.444;2023-02-28T09:08:25;16.90;;;8.93;;
17145;SDS011;8688;54.444;18.444;2023-02-28T09:10:54;16.77;;;8.20;;
17145;SDS011;8688;54.444;18.444;2023-02-28T09:13:23;20.93;;;9.77;;
17145;SDS011;8688;54.444;18.444;2023-02-28T09:15:50;39.40;;;18.73;;
17145;SDS011;8688;54.444;18.444;2023-02-28T09:18:18;215.40;;;79.77;;
17145;SDS011;8688;54.444;18.444;2023-02-28T09:20:46;160.07;;;68.10;;
17145;SDS011;8688;54.444;18.444;2023-02-28T09:23:14;24.10;;;13.67;;
17145;SDS011;8688;54.444;18.444;2023-02-28T09:25:46;44.00;;;26.37;;
17145;SDS011;8688;54.444;18.444;2023-02-28T09:28:14;14.47;;;7.73;;
17145;SDS011;8688;54.444;18.444;2023-02-28T09:30:44;16.90;;;8.50;;
17145;SDS011;8688;54.444;18.444;2023-02-28T09:33:12;16.43;;;9.33;;
17145;SDS011;8688;54.444;18.444;2023-02-28T09:35:41;8.67;;;4.50;;
17145;SDS011;8688;54.444;18.444;2023-02-28T09:38:08;29.97;;;19.23;;
17145;SDS011;8688;54.444;18.444;2023-02-28T09:40:50;25.83;;;13.67;;
17145;SDS011;8688;54.444;18.444;2023-02-28T09:43:20;14.80;;;8.47;;
17145;SDS011;8688;54.444;18.444;2023-02-28T09:45:51;11.13;;;6.93;;
17145;SDS011;8688;54.444;18.444;2023-02-28T09:48:26;11.83;;;5.93;;
17145;SDS011;8688;54.444;18.444;2023-02-28T09:51:01;9.30;;;4.20;;
17145;SDS011;8688;54.444;18.444;2023-02-28T09:53:30;9.53;;;4.20;;
17145;SDS011;8688;54.444;18.444;2023-02-28T09:56:03;6.90;;;3.90;;
17145;SDS011;8688;54.444;18.444;2023-02-28T09:58:44;12.33;;;5.40;;
17145;SDS011;8688;54.444;18.444;2023-02-28T10:01:18;12.60;;;5.77;;
17145;SDS011;8688;54.444;18.444;2023-02-28T10:03:53;10.53;;;4.33;;
17145;SDS011;8688;54.444;18.444;2023-02-28T10:06:26;9.13;;;4.77;;
17145;SDS011;8688;54.444;18.444;2023-02-28T10:08:58;10.00;;;6.07;;
17145;SDS011;8688;54.444;18.444;2023-02-28T10:11:32;9.53;;;5.43;;
17145;SDS011;8688;54.444;18.444;2023-02-28T10:14:02;9.90;;;5.00;;
17145;SDS011;8688;54.444;18.444;2023-02-28T10:16:36;18.47;;;9.50;;
17145;SDS011;8688;54.444;18.444;2023-02-28T10:19:11;18.63;;;10.73;;
17145;SDS011;8688;54.444;18.444;2023-02-28T10:21:43;7.70;;;3.17;;
17145;SDS011;8688;54.444;18.444;2023-02-28T10:24:19;14.83;;;9.77;;
17145;SDS011;8688;54.444;18.444;2023-02-28T10:26:51;15.83;;;6.83;;
17145;SDS011;8688;54.444;18.444;2023-02-28T10:29:20;4.57;;;2.53;;
17145;SDS011;8688;54.444;18.444;2023-02-28T10:31:47;7.23;;;3.10;;
17145;SDS011;8688;54.444;18.444;2023-02-28T10:34:15;9.10;;;4.73;;
17145;SDS011;8688;54.444;18.444;2023-02-28T10:36:42;9.67;;;3.60;;
17145;SDS011;8688;54.444;18.444;2023-02-28T10:42:05;15.67;;;7.60;;
17145;SDS011;8688;54.444;18.444;2023-02-28T10:44:47;12.23;;;6.57;;
17145;SDS011;8688;54.444;18.444;2023-02-28T10:47:15;9.20;;;4.17;;
17145;SDS011;8688;54.444;18.444;2023-02-28T10:49:47;7.70;;;3.57;;
17145;SDS011;8688;54.444;18.444;2023-02-28T10:52:32;21.07;;;7.60;;
17145;SDS011;8688;54.444;18.444;2023-02-28T10:55:15;28.03;;;11.30;;
17145;SDS011;8688;54.444;18.444;2023-02-28T10:57:49;29.83;;;12.17;;
17145;SDS011;8688;54.444;18.444;2023-02-28T11:00:18;98.20;;;33.20;;
17145;SDS011;8688;54.444;18.444;2023-02-28T11:02:48;13.63;;;5.70;;
17145;SDS011;8688;54.444;18.444;2023-02-28T11:05:23;27.37;;;11.77;;
17145;SDS011;8688;54.444;18.444;2023-02-28T11:07:52;12.97;;;5.00;;
17145;SDS011;8688;54.444;18.444;2023-02-28T11:10:30;46.93;;;22.90;;
17145;SDS011;8688;54.444;18.444;2023-02-28T11:13:01;17.00;;;8.00;;
17145;SDS011;8688;54.444;18.444;2023-02-28T11:15:30;8.80;;;5.13;;
17145;SDS011;8688;54.444;18.444;2023-02-28T11:17:59;8.57;;;4.67;;
17145;SDS011;8688;54.444;18.444;2023-02-28T11:20:29;8.53;;;4.40;;
17145;SDS011;8688;54.444;18.444;2023-02-28T11:23:00;19.43;;;8.83;;
17145;SDS011;8688;54.444;18.444;2023-02-28T11:25:29;12.20;;;6.40;;
17145;SDS011;8688;54.444;18.444;2023-02-28T11:27:59;8.53;;;3.97;;
17145;SDS011;8688;54.444;18.444;2023-02-28T11:30:32;7.17;;;3.27;;
17145;SDS011;8688;54.444;18.444;2023-02-28T11:33:18;7.47;;;3.90;;
17145;SDS011;8688;54.444;18.444;2023-02-28T11:35:49;8.50;;;3.50;;
17145;SDS011;8688;54.444;18.444;2023-02-28T11:38:18;8.87;;;3.47;;
17145;SDS011;8688;54.444;18.444;2023-02-28T11:40:47;8.40;;;3.27;;
17145;SDS011;8688;54.444;18.444;2023-02-28T11:43:27;8.83;;;3.07;;
17145;SDS011;8688;54.444;18.444;2023-02-28T11:46:06;8.70;;;3.20;;
17145;SDS011;8688;54.444;18.444;2023-02-28T11:48:49;8.13;;;3.23;;
17145;SDS011;8688;54.444;18.444;2023-02-28T11:51:28;10.00;;;3.70;;
17145;SDS011;8688;54.444;18.444;2023-02-28T11:54:05;5.73;;;3.13;;
17145;SDS011;8688;54.444;18.444;2023-02-28T11:56:51;11.47;;;7.10;;
17145;SDS011;8688;54.444;18.444;2023-02-28T11:59:35;20.13;;;11.50;;
17145;SDS011;8688;54.444;18.444;2023-02-28T12:02:20;7.50;;;3.83;;
17145;SDS011;8688;54.444;18.444;2023-02-28T12:07:47;9.80;;;3.70;;
17145;SDS011;8688;54.444;18.444;2023-02-28T12:10:24;7.40;;;3.97;;
17145;SDS011;8688;54.444;18.444;2023-02-28T12:12:57;11.67;;;4.50;;
17145;SDS011;8688;54.444;18.444;2023-02-28T12:15:41;10.10;;;3.60;;
17145;SDS011;8688;54.444;18.444;2023-02-28T12:18:42;16.20;;;8.27;;
17145;SDS011;8688;54.444;18.444;2023-02-28T12:21:20;22.83;;;11.77;;
17145;SDS011;8688;54.444;18.444;2023-02-28T12:24:01;28.33;;;12.77;;
17145;SDS011;8688;54.444;18.444;2023-02-28T12:26:40;21.37;;;10.50;;
17145;SDS011;8688;54.444;18.444;2023-02-28T12:29:12;16.60;;;6.80;;
17145;SDS011;8688;54.444;18.444;2023-02-28T12:31:47;27.63;;;14.53;;
17145;SDS011;8688;54.444;18.444;2023-02-28T12:34:19;20.97;;;10.83;;
17145;SDS011;8688;54.444;18.444;2023-02-28T12:36:49;16.63;;;9.50;;
17145;SDS011;8688;54.444;18.444;2023-02-28T12:39:21;9.70;;;5.73;;
17145;SDS011;8688;54.444;18.444;2023-02-28T12:41:53;5.13;;;3.03;;
17145;SDS011;8688;54.444;18.444;2023-02-28T12:44:25;11.30;;;4.30;;
17145;SDS011;8688;54.444;18.444;2023-02-28T12:47:01;7.70;;;3.13;;
17145;SDS011;8688;54.444;18.444;2023-02-28T12:49:33;7.70;;;3.77;;
17145;SDS011;8688;54.444;18.444;2023-02-28T12:52:03;10.13;;;4.30;;
17145;SDS011;8688;54.444;18.444;2023-02-28T12:54:37;21.53;;;8.97;;
17145;SDS011;8688;54.444;18.444;2023-02-28T12:57:12;16.57;;;8.90;;
17145;SDS011;8688;54.444;18.444;2023-02-28T12:59:45;6.27;;;2.80;;
17145;SDS011;8688;54.444;18.444;2023-02-28T13:02:31;5.60;;;3.13;;
17145;SDS011;8688;54.444;18.444;2023-02-28T13:05:30;7.83;;;3.13;;
17145;SDS011;8688;54.444;18.444;2023-02-28T13:08:24;6.53;;;3.23;;
17145;SDS011;8688;54.444;18.444;2023-02-28T13:11:27;5.50;;;2.60;;
17145;SDS011;8688;54.444;18.444;2023-02-28T13:13:57;5.53;;;2.63;;
17145;SDS011;8688;54.444;18.444;2023-02-28T13:16:26;7.63;;;3.00;;
17145;SDS011;8688;54.444;18.444;2023-02-28T13:18:56;6.67;;;2.93;;
17145;SDS011;8688;54.444;18.444;2023-02-28T13:21:45;8.40;;;2.87;;
17145;SDS011;8688;54.444;18.444;2023-02-28T13:36:10;8.43;;;4.00;;
17145;SDS011;8688;54.444;18.444;2023-02-28T13:38:54;9.07;;;3.90;;
17145;SDS011;8688;54.444;18.444;2023-02-28T13:41:44;6.20;;;3.23;;
17145;SDS011;8688;54.444;18.444;2023-02-28T13:44:14;8.63;;;3.50;;
17145;SDS011;8688;54.444;18.444;2023-02-28T13:52:45;7.27;;;3.73;;
17145;SDS011;8688;54.444;18.444;2023-02-28T13:55:25;7.70;;;3.60;;
17145;SDS011;8688;54.444;18.444;2023-02-28T13:58:05;5.37;;;3.30;;
17145;SDS011;8688;54.444;18.444;2023-02-28T14:00:50;6.77;;;3.67;;
17145;SDS011;8688;54.444;18.444;2023-02-28T14:03:38;7.77;;;3.47;;
17145;SDS011;8688;54.444;18.444;2023-02-28T14:06:18;9.30;;;3.70;;
17145;SDS011;8688;54.444;18.444;2023-02-28T14:08:55;8.20;;;3.20;;
17145;SDS011;8688;54.444;18.444;2023-02-28T14:11:27;8.13;;;3.20;;
17145;SDS011;8688;54.444;18.444;2023-02-28T14:13:57;8.40;;;3.77;;
17145;SDS011;8688;54.444;18.444;2023-02-28T14:16:25;7.93;;;3.47;;
17145;SDS011;8688;54.444;18.444;2023-02-28T14:19:01;8.50;;;3.90;;
17145;SDS011;8688;54.444;18.444;2023-02-28T14:21:36;7.90;;;4.20;;
17145;SDS011;8688;54.444;18.444;2023-02-28T14:33:00;11.43;;;4.63;;
17145;SDS011;8688;54.444;18.444;2023-02-28T14:35:55;7.87;;;4.53;;
17145;SDS011;8688;54.444;18.444;2023-02-28T14:38:40;12.57;;;5.50;;
17145;SDS011;8688;54.444;18.444;2023-02-28T14:41:16;9.93;;;4.77;;
17145;SDS011;8688;54.444;18.444;2023-02-28T14:43:49;8.67;;;3.97;;
17145;SDS011;8688;54.444;18.444;2023-02-28T14:46:18;8.23;;;4.53;;
17145;SDS011;8688;54.444;18.444;2023-02-28T14:48:46;12.10;;;5.57;;
17145;SDS011;8688;54.444;18.444;2023-02-28T14:51:17;8.60;;;4.93;;
17145;SDS011;8688;54.444;18.444;2023-02-28T14:53:47;9.13;;;5.10;;
17145;SDS011;8688;54.444;18.444;2023-02-28T14:56:24;22.07;;;11.23;;
17145;SDS011;8688;54.444;18.444;2023-02-28T14:58:56;25.83;;;16.20;;
17145;SDS011;8688;54.444;18.444;2023-02-28T15:01:25;15.93;;;6.43;;
17145;SDS011;8688;54.444;18.444;2023-02-28T15:04:00;7.23;;;3.47;;
17145;SDS011;8688;54.444;18.444;2023-02-28T15:06:30;10.77;;;4.00;;
17145;SDS011;8688;54.444;18.444;2023-02-28T15:09:08;13.37;;;4.70;;
17145;SDS011;8688;54.444;18.444;2023-02-28T15:11:38;12.50;;;5.00;;
17145;SDS011;8688;54.444;18.444;2023-02-28T15:14:12;9.90;;;3.57;;
17145;SDS011;8688;54.444;18.444;2023-02-28T15:16:46;9.47;;;4.00;;
17145;SDS011;8688;54.444;18.444;2023-02-28T15:19:19;9.07;;;4.30;;
17145;SDS011;8688;54.444;18.444;2023-02-28T15:21:50;17.20;;;6.43;;
17145;SDS011;8688;54.444;18.444;2023-02-28T15:24:21;21.43;;;9.57;;
17145;SDS011;8688;54.444;18.444;2023-02-28T15:26:55;28.13;;;10.73;;
17145;SDS011;8688;54.444;18.444;2023-02-28T15:29:26;13.87;;;6.70;;
17145;SDS011;8688;54.444;18.444;2023-02-28T15:31:57;13.67;;;5.97;;
17145;SDS011;8688;54.444;18.444;2023-02-28T15:34:30;20.13;;;7.33;;
17145;SDS011;8688;54.444;18.444;2023-02-28T15:37:02;13.53;;;5.33;;
17145;SDS011;8688;54.444;18.444;2023-02-28T15:39:51;23.97;;;10.17;;
17145;SDS011;8688;54.444;18.444;2023-02-28T15:42:20;15.97;;;6.83;;
17145;SDS011;8688;54.444;18.444;2023-02-28T15:44:50;22.63;;;9.30;;
17145;SDS011;8688;54.444;18.444;2023-02-28T15:47:19;19.73;;;7.17;;
17145;SDS011;8688;54.444;18.444;2023-02-28T15:49:48;19.07;;;7.33;;
17145;SDS011;8688;54.444;18.444;2023-02-28T15:52:18;23.13;;;7.93;;
17145;SDS011;8688;54.444;18.444;2023-02-28T15:54:48;15.37;;;5.87;;
17145;SDS011;8688;54.444;18.444;2023-02-28T15:57:17;13.53;;;5.43;;
17145;SDS011;8688;54.444;18.444;2023-02-28T15:59:49;16.60;;;6.60;;
17145;SDS011;8688;54.444;18.444;2023-02-28T16:02:21;16.00;;;5.87;;
17145;SDS011;8688;54.444;18.444;2023-02-28T16:04:57;14.97;;;5.47;;
17145;SDS011;8688;54.444;18.444;2023-02-28T16:07:41;13.70;;;5.53;;
17145;SDS011;8688;54.444;18.444;2023-02-28T16:10:11;13.13;;;5.73;;
17145;SDS011;8688;54.444;18.444;2023-02-28T16:12:40;16.13;;;5.53;;
17145;SDS011;8688;54.444;18.444;2023-02-28T16:15:20;16.70;;;5.20;;
17145;SDS011;8688;54.444;18.444;2023-02-28T16:17:49;13.03;;;5.53;;
17145;SDS011;8688;54.444;18.444;2023-02-28T16:20:18;16.30;;;5.87;;